createdAt,value
2019-03-24T00:00:27.310Z,1027.07
2019-03-24T00:01:27.369Z,1027.05
2019-03-24T00:02:27.391Z,1027.08
2019-03-24T00:03:27.298Z,1027.04
2019-03-24T00:04:27.310Z,1027.02
2019-03-24T00:05:27.362Z,1027.02
2019-03-24T00:06:27.740Z,1027.01
2019-03-24T00:07:27.540Z,1027.03
2019-03-24T00:08:27.352Z,1027.03
2019-03-24T00:09:27.312Z,1027.05
2019-03-24T00:10:27.330Z,1027.06
2019-03-24T00:11:27.318Z,1027.06
2019-03-24T00:12:27.278Z,1027.05
2019-03-24T00:13:27.292Z,1027.05
2019-03-24T00:14:27.300Z,1027.02
2019-03-24T00:15:27.289Z,1027.02
2019-03-24T00:16:27.282Z,1027.04
2019-03-24T00:17:27.298Z,1027.02
2019-03-24T00:18:27.314Z,1027.04
2019-03-24T00:19:27.359Z,1027.02
2019-03-24T00:20:27.282Z,1027.04
2019-03-24T00:21:27.279Z,1027.04
2019-03-24T00:22:27.287Z,1027.03
2019-03-24T00:23:27.274Z,1026.99
2019-03-24T00:24:27.274Z,1026.99
2019-03-24T00:25:27.312Z,1026.95
2019-03-24T00:26:27.270Z,1027
2019-03-24T00:27:27.258Z,1026.95
2019-03-24T00:28:27.382Z,1026.96
2019-03-24T00:29:27.328Z,1026.94
2019-03-24T00:30:27.290Z,1027
2019-03-24T00:31:27.292Z,1026.94
2019-03-24T00:32:27.323Z,1026.95
2019-03-24T00:33:27.316Z,1026.95
2019-03-24T00:34:27.302Z,1026.97
2019-03-24T00:35:27.256Z,1026.92
2019-03-24T00:36:27.252Z,1026.98
2019-03-24T00:37:27.275Z,1026.95
2019-03-24T00:38:27.256Z,1026.95
2019-03-24T00:39:27.245Z,1026.96
2019-03-24T00:40:27.242Z,1026.95
2019-03-24T00:41:27.251Z,1026.92
2019-03-24T00:42:27.274Z,1026.92
2019-03-24T00:43:27.255Z,1026.93
2019-03-24T00:44:27.247Z,1026.92
2019-03-24T00:45:37.243Z,1026.9
2019-03-24T00:46:27.235Z,1026.88
2019-03-24T00:47:27.270Z,1026.84
2019-03-24T00:48:27.252Z,1026.87
2019-03-24T00:49:27.263Z,1026.89
2019-03-24T00:50:27.437Z,1026.87
2019-03-24T00:51:27.319Z,1026.87
2019-03-24T00:52:27.301Z,1026.86
2019-03-24T00:53:27.234Z,1026.85
2019-03-24T00:54:27.234Z,1026.88
2019-03-24T00:55:27.277Z,1026.91
2019-03-24T00:56:27.256Z,1026.9
2019-03-24T00:57:27.226Z,1026.92
2019-03-24T00:58:27.210Z,1026.94
2019-03-24T00:59:29.305Z,1026.88
2019-03-24T01:00:27.217Z,1026.91
2019-03-24T01:01:27.298Z,1026.84
2019-03-24T01:02:27.208Z,1026.83
2019-03-24T01:03:27.337Z,1026.82
2019-03-24T01:04:27.236Z,1026.82
2019-03-24T01:05:27.232Z,1026.8
2019-03-24T01:06:27.250Z,1026.76
2019-03-24T01:07:27.257Z,1026.81
2019-03-24T01:08:27.252Z,1026.79
2019-03-24T01:09:27.241Z,1026.8
2019-03-24T01:10:27.253Z,1026.77
2019-03-24T01:11:27.253Z,1026.75
2019-03-24T01:12:27.312Z,1026.75
2019-03-24T01:13:27.203Z,1026.72
2019-03-24T01:14:27.202Z,1026.73
2019-03-24T01:15:27.188Z,1026.7
2019-03-24T01:16:27.209Z,1026.66
2019-03-24T01:17:27.245Z,1026.64
2019-03-24T01:18:27.206Z,1026.62
2019-03-24T01:19:27.241Z,1026.62
2019-03-24T01:20:27.245Z,1026.61
2019-03-24T01:21:27.210Z,1026.54
2019-03-24T01:22:27.215Z,1026.52
2019-03-24T01:23:27.209Z,1026.51
2019-03-24T01:24:27.217Z,1026.48
2019-03-24T01:25:27.200Z,1026.49
2019-03-24T01:26:27.221Z,1026.47
2019-03-24T01:27:27.241Z,1026.43
2019-03-24T01:28:27.203Z,1026.44
2019-03-24T01:29:27.221Z,1026.44
2019-03-24T01:30:27.225Z,1026.44
2019-03-24T01:31:27.200Z,1026.4
2019-03-24T01:32:27.173Z,1026.43
2019-03-24T01:33:27.423Z,1026.42
2019-03-24T01:34:27.254Z,1026.43
2019-03-24T01:35:27.170Z,1026.43
2019-03-24T01:36:27.164Z,1026.42
2019-03-24T01:37:27.153Z,1026.4
2019-03-24T01:38:27.169Z,1026.4
2019-03-24T01:39:27.231Z,1026.41
2019-03-24T01:40:27.150Z,1026.38
2019-03-24T01:41:27.169Z,1026.45
2019-03-24T01:42:27.160Z,1026.43
2019-03-24T01:43:27.211Z,1026.42
2019-03-24T01:44:27.163Z,1026.41
2019-03-24T01:45:27.157Z,1026.43
2019-03-24T01:46:27.154Z,1026.4
2019-03-24T01:47:27.142Z,1026.44
2019-03-24T01:48:27.166Z,1026.46
2019-03-24T01:49:27.174Z,1026.42
2019-03-24T01:50:27.172Z,1026.4
2019-03-24T01:51:27.155Z,1026.42
2019-03-24T01:52:27.141Z,1026.38
2019-03-24T01:53:27.179Z,1026.44
2019-03-24T01:54:27.180Z,1026.39
2019-03-24T01:55:27.458Z,1026.37
2019-03-24T01:56:27.373Z,1026.36
2019-03-24T01:57:27.178Z,1026.35
2019-03-24T01:58:27.181Z,1026.4
2019-03-24T01:59:27.161Z,1026.39
2019-03-24T02:00:27.145Z,1026.38
2019-03-24T02:01:27.149Z,1026.38
2019-03-24T02:02:27.168Z,1026.36
2019-03-24T02:03:27.119Z,1026.35
2019-03-24T02:04:27.129Z,1026.33
2019-03-24T02:05:27.194Z,1026.37
2019-03-24T02:06:27.142Z,1026.37
2019-03-24T02:07:27.113Z,1026.36
2019-03-24T02:08:27.191Z,1026.37
2019-03-24T02:09:27.141Z,1026.39
2019-03-24T02:10:27.114Z,1026.35
2019-03-24T02:11:27.192Z,1026.39
2019-03-24T02:12:27.162Z,1026.37
2019-03-24T02:13:27.101Z,1026.36
2019-03-24T02:14:27.108Z,1026.38
2019-03-24T02:15:27.137Z,1026.36
2019-03-24T02:16:27.117Z,1026.37
2019-03-24T02:17:27.288Z,1026.35
2019-03-24T02:18:27.135Z,1026.35
2019-03-24T02:19:27.122Z,1026.37
2019-03-24T02:20:27.215Z,1026.34
2019-03-24T02:21:27.122Z,1026.34
2019-03-24T02:22:27.140Z,1026.34
2019-03-24T02:23:27.131Z,1026.32
2019-03-24T02:24:27.138Z,1026.3
2019-03-24T02:25:27.105Z,1026.28
2019-03-24T02:26:27.109Z,1026.26
2019-03-24T02:27:27.098Z,1026.23
2019-03-24T02:28:27.086Z,1026.22
2019-03-24T02:29:27.098Z,1026.24
2019-03-24T02:30:27.127Z,1026.21
2019-03-24T02:31:27.094Z,1026.22
2019-03-24T02:32:27.082Z,1026.2
2019-03-24T02:33:27.134Z,1026.22
2019-03-24T02:34:27.120Z,1026.2
2019-03-24T02:35:27.074Z,1026.2
2019-03-24T02:36:27.110Z,1026.24
2019-03-24T02:37:27.074Z,1026.22
2019-03-24T02:38:27.511Z,1026.25
2019-03-24T02:39:27.115Z,1026.23
2019-03-24T02:40:27.077Z,1026.21
2019-03-24T02:41:27.186Z,1026.2
2019-03-24T02:42:27.088Z,1026.2
2019-03-24T02:43:27.048Z,1026.18
2019-03-24T02:44:27.100Z,1026.18
2019-03-24T02:45:27.056Z,1026.18
2019-03-24T02:46:27.077Z,1026.16
2019-03-24T02:47:27.087Z,1026.19
2019-03-24T02:48:27.091Z,1026.18
2019-03-24T02:49:27.049Z,1026.2
2019-03-24T02:50:27.098Z,1026.23
2019-03-24T02:51:27.049Z,1026.22
2019-03-24T02:52:27.078Z,1026.21
2019-03-24T02:53:27.084Z,1026.22
2019-03-24T02:54:27.086Z,1026.24
2019-03-24T02:55:27.057Z,1026.24
2019-03-24T02:56:27.039Z,1026.23
2019-03-24T02:57:27.077Z,1026.22
2019-03-24T02:58:27.127Z,1026.25
2019-03-24T02:59:27.134Z,1026.24
2019-03-24T03:00:27.501Z,1026.26
2019-03-24T03:01:27.125Z,1026.28
2019-03-24T03:02:27.076Z,1026.24
2019-03-24T03:03:27.044Z,1026.28
2019-03-24T03:04:27.049Z,1026.26
2019-03-24T03:05:27.094Z,1026.25
2019-03-24T03:06:27.045Z,1026.25
2019-03-24T03:07:27.066Z,1026.22
2019-03-24T03:08:27.034Z,1026.23
2019-03-24T03:09:27.076Z,1026.23
2019-03-24T03:10:27.064Z,1026.25
2019-03-24T03:11:27.073Z,1026.24
2019-03-24T03:12:27.054Z,1026.29
2019-03-24T03:13:27.026Z,1026.29
2019-03-24T03:14:27.081Z,1026.27
2019-03-24T03:15:27.063Z,1026.3
2019-03-24T03:16:39.121Z,1026.26
2019-03-24T03:17:27.044Z,1026.25
2019-03-24T03:18:27.028Z,1026.27
2019-03-24T03:19:27.030Z,1026.24
2019-03-24T03:20:27.938Z,1026.23
2019-03-24T03:21:27.026Z,1026.22
2019-03-24T03:22:27.193Z,1026.24
2019-03-24T03:23:27.020Z,1026.22
2019-03-24T03:24:27.004Z,1026.21
2019-03-24T03:25:27.036Z,1026.2
2019-03-24T03:26:27.017Z,1026.17
2019-03-24T03:27:27.018Z,1026.19
2019-03-24T03:28:27.029Z,1026.16
2019-03-24T03:29:27.005Z,1026.15
2019-03-24T03:30:27.039Z,1026.13
2019-03-24T03:31:27.339Z,1026.09
2019-03-24T03:32:27.032Z,1026.1
2019-03-24T03:33:27.047Z,1026.05
2019-03-24T03:34:27.041Z,1026.07
2019-03-24T03:35:27.053Z,1026.07
2019-03-24T03:36:27.072Z,1026.04
2019-03-24T03:37:27.019Z,1026.06
2019-03-24T03:38:27.015Z,1026.05
2019-03-24T03:39:27.020Z,1026.04
2019-03-24T03:40:27.058Z,1026.04
2019-03-24T03:41:26.982Z,1026.02
2019-03-24T03:42:27.016Z,1026.04
2019-03-24T03:43:27.023Z,1025.99
2019-03-24T03:44:27.175Z,1025.98
2019-03-24T03:45:27.001Z,1026.02
2019-03-24T03:46:27.048Z,1025.97
2019-03-24T03:47:27.045Z,1025.96
2019-03-24T03:48:27.052Z,1026
2019-03-24T03:49:26.997Z,1025.97
2019-03-24T03:50:26.992Z,1025.96
2019-03-24T03:51:26.989Z,1025.96
2019-03-24T03:52:27.013Z,1025.94
2019-03-24T03:53:26.986Z,1025.9
2019-03-24T03:54:26.980Z,1025.94
2019-03-24T03:55:26.967Z,1025.93
2019-03-24T03:56:26.988Z,1025.87
2019-03-24T03:57:26.991Z,1025.9
2019-03-24T03:58:26.969Z,1025.9
2019-03-24T03:59:26.999Z,1025.9
2019-03-24T04:00:26.957Z,1025.89
2019-03-24T04:01:27.020Z,1025.9
2019-03-24T04:02:26.985Z,1025.89
2019-03-24T04:03:26.956Z,1025.9
2019-03-24T04:04:27.172Z,1025.89
2019-03-24T04:05:26.950Z,1025.89
2019-03-24T04:06:26.976Z,1025.86
2019-03-24T04:07:26.979Z,1025.84
2019-03-24T04:08:26.959Z,1025.83
2019-03-24T04:09:27.025Z,1025.81
2019-03-24T04:10:26.946Z,1025.81
2019-03-24T04:11:26.972Z,1025.8
2019-03-24T04:12:27.096Z,1025.78
2019-03-24T04:13:26.966Z,1025.79
2019-03-24T04:14:26.946Z,1025.77
2019-03-24T04:15:27.015Z,1025.78
2019-03-24T04:16:27.016Z,1025.77
2019-03-24T04:17:26.941Z,1025.78
2019-03-24T04:18:26.959Z,1025.76
2019-03-24T04:19:26.960Z,1025.76
2019-03-24T04:20:26.992Z,1025.78
2019-03-24T04:21:26.966Z,1025.74
2019-03-24T04:22:26.951Z,1025.72
2019-03-24T04:23:26.938Z,1025.73
2019-03-24T04:24:26.937Z,1025.7
2019-03-24T04:25:27.240Z,1025.74
2019-03-24T04:26:27.219Z,1025.68
2019-03-24T04:27:26.939Z,1025.7
2019-03-24T04:28:26.969Z,1025.69
2019-03-24T04:29:26.977Z,1025.73
2019-03-24T04:30:26.967Z,1025.75
2019-03-24T04:31:26.950Z,1025.78
2019-03-24T04:32:26.954Z,1025.74
2019-03-24T04:33:26.941Z,1025.7
2019-03-24T04:34:26.965Z,1025.76
2019-03-24T04:35:26.997Z,1025.74
2019-03-24T04:36:26.937Z,1025.75
2019-03-24T04:37:26.934Z,1025.73
2019-03-24T04:38:27.002Z,1025.77
2019-03-24T04:39:26.941Z,1025.76
2019-03-24T04:40:26.933Z,1025.77
2019-03-24T04:41:26.926Z,1025.79
2019-03-24T04:42:26.938Z,1025.78
2019-03-24T04:43:26.928Z,1025.79
2019-03-24T04:44:26.904Z,1025.81
2019-03-24T04:45:26.904Z,1025.81
2019-03-24T04:46:26.946Z,1025.83
2019-03-24T04:47:26.947Z,1025.82
2019-03-24T04:48:26.916Z,1025.82
2019-03-24T04:49:26.922Z,1025.84
2019-03-24T04:50:26.975Z,1025.85
2019-03-24T04:51:26.883Z,1025.84
2019-03-24T04:52:26.914Z,1025.81
2019-03-24T04:53:26.954Z,1025.88
2019-03-24T04:54:26.931Z,1025.86
2019-03-24T04:55:26.931Z,1025.89
2019-03-24T04:56:26.889Z,1025.9
2019-03-24T04:57:26.949Z,1025.84
2019-03-24T04:58:26.892Z,1025.84
2019-03-24T04:59:26.889Z,1025.82
2019-03-24T05:00:26.913Z,1025.88
2019-03-24T05:01:26.879Z,1025.88
2019-03-24T05:02:26.911Z,1025.89
2019-03-24T05:03:26.875Z,1025.89
2019-03-24T05:04:26.866Z,1025.9
2019-03-24T05:05:26.879Z,1025.89
2019-03-24T05:06:27.176Z,1025.87
2019-03-24T05:07:26.884Z,1025.87
2019-03-24T05:08:27.203Z,1025.88
2019-03-24T05:09:26.901Z,1025.88
2019-03-24T05:10:26.909Z,1025.89
2019-03-24T05:11:26.893Z,1025.91
2019-03-24T05:12:26.900Z,1025.95
2019-03-24T05:13:26.841Z,1025.94
2019-03-24T05:14:26.897Z,1025.97
2019-03-24T05:15:26.904Z,1025.99
2019-03-24T05:16:26.861Z,1025.97
2019-03-24T05:17:27.606Z,1026
2019-03-24T05:18:26.871Z,1025.99
2019-03-24T05:19:26.872Z,1026.02
2019-03-24T05:20:26.866Z,1026.02
2019-03-24T05:21:26.885Z,1026
2019-03-24T05:22:26.915Z,1025.99
2019-03-24T05:23:26.892Z,1026
2019-03-24T05:24:26.887Z,1026.01
2019-03-24T05:25:26.979Z,1026.08
2019-03-24T05:26:26.897Z,1026.08
2019-03-24T05:27:26.854Z,1026.06
2019-03-24T05:28:26.843Z,1026.03
2019-03-24T05:29:26.867Z,1026.07
2019-03-24T05:30:26.903Z,1026.09
2019-03-24T05:31:26.848Z,1026.07
2019-03-24T05:32:26.834Z,1026.11
2019-03-24T05:33:26.824Z,1026.1
2019-03-24T05:34:27.359Z,1026.09
2019-03-24T05:35:26.895Z,1026.1
2019-03-24T05:36:26.854Z,1026.1
2019-03-24T05:37:26.877Z,1026.09
2019-03-24T05:38:26.836Z,1026.09
2019-03-24T05:39:26.830Z,1026.06
2019-03-24T05:40:26.854Z,1026.05
2019-03-24T05:41:26.863Z,1026.04
2019-03-24T05:42:26.839Z,1026.05
2019-03-24T05:43:26.842Z,1026.06
2019-03-24T05:44:26.830Z,1026.05
2019-03-24T05:45:26.819Z,1026.08
2019-03-24T05:46:26.850Z,1026.07
2019-03-24T05:47:37.476Z,1026.05
2019-03-24T05:48:26.843Z,1026.06
2019-03-24T05:49:26.828Z,1026.02
2019-03-24T05:50:26.817Z,1026.02
2019-03-24T05:51:26.916Z,1026.04
2019-03-24T05:52:27.813Z,1026.03
2019-03-24T05:53:26.832Z,1026.01
2019-03-24T05:54:26.812Z,1026.05
2019-03-24T05:55:26.835Z,1026.06
2019-03-24T05:56:26.809Z,1026.04
2019-03-24T05:57:26.802Z,1026.02
2019-03-24T05:58:26.822Z,1026.06
2019-03-24T05:59:26.789Z,1026.01
2019-03-24T06:00:26.810Z,1026.01
2019-03-24T06:01:26.793Z,1026.05
2019-03-24T06:02:26.851Z,1026.05
2019-03-24T06:03:26.875Z,1026.04
2019-03-24T06:04:26.842Z,1026.08
2019-03-24T06:05:26.811Z,1026.04
2019-03-24T06:06:26.792Z,1026.04
2019-03-24T06:07:26.764Z,1026.04
2019-03-24T06:08:26.770Z,1026.03
2019-03-24T06:09:26.819Z,1026.06
2019-03-24T06:10:26.790Z,1026.06
2019-03-24T06:11:26.779Z,1026.1
2019-03-24T06:12:26.763Z,1026.09
2019-03-24T06:13:27.016Z,1026.08
2019-03-24T06:14:27.535Z,1026.06
2019-03-24T06:15:26.787Z,1026.06
2019-03-24T06:16:26.830Z,1026.09
2019-03-24T06:17:26.799Z,1026.09
2019-03-24T06:18:26.748Z,1026.08
2019-03-24T06:19:26.777Z,1026.07
2019-03-24T06:20:26.778Z,1026.07
2019-03-24T06:21:26.783Z,1026.05
2019-03-24T06:22:26.750Z,1026.04
2019-03-24T06:23:26.752Z,1026
2019-03-24T06:24:26.749Z,1026.01
2019-03-24T06:25:26.802Z,1026
2019-03-24T06:26:26.757Z,1025.99
2019-03-24T06:27:26.790Z,1026.01
2019-03-24T06:28:26.771Z,1026
2019-03-24T06:29:26.736Z,1026
2019-03-24T06:30:26.739Z,1025.97
2019-03-24T06:31:26.778Z,1025.99
2019-03-24T06:32:26.741Z,1025.94
2019-03-24T06:33:26.794Z,1025.9
2019-03-24T06:34:26.763Z,1025.95
2019-03-24T06:35:27.044Z,1025.91
2019-03-24T06:36:26.794Z,1025.89
2019-03-24T06:37:26.741Z,1025.9
2019-03-24T06:38:26.743Z,1025.88
2019-03-24T06:39:26.729Z,1025.87
2019-03-24T06:40:26.781Z,1025.91
2019-03-24T06:41:26.743Z,1025.89
2019-03-24T06:42:26.721Z,1025.93
2019-03-24T06:43:26.722Z,1025.91
2019-03-24T06:44:26.759Z,1025.9
2019-03-24T06:45:29.100Z,1025.92
2019-03-24T06:46:26.769Z,1025.98
2019-03-24T06:47:26.713Z,1025.91
2019-03-24T06:48:26.759Z,1025.99
2019-03-24T06:49:26.704Z,1025.99
2019-03-24T06:50:26.732Z,1026.01
2019-03-24T06:51:26.693Z,1025.99
2019-03-24T06:52:26.744Z,1026.02
2019-03-24T06:53:26.706Z,1026.04
2019-03-24T06:54:26.695Z,1026.05
2019-03-24T06:55:26.698Z,1026.09
2019-03-24T06:56:26.782Z,1026.08
2019-03-24T06:57:26.783Z,1026.06
2019-03-24T06:58:26.700Z,1026.1
2019-03-24T06:59:26.733Z,1026.09
2019-03-24T07:00:26.748Z,1026.15
2019-03-24T07:01:26.702Z,1026.15
2019-03-24T07:02:26.679Z,1026.18
2019-03-24T07:03:26.701Z,1026.17
2019-03-24T07:04:26.688Z,1026.16
2019-03-24T07:05:26.755Z,1026.13
2019-03-24T07:06:26.709Z,1026.1
2019-03-24T07:07:26.684Z,1026.09
2019-03-24T07:08:26.705Z,1026.13
2019-03-24T07:09:26.756Z,1026.06
2019-03-24T07:10:26.688Z,1026.09
2019-03-24T07:11:26.696Z,1026.09
2019-03-24T07:12:26.700Z,1026.11
2019-03-24T07:13:26.689Z,1026.07
2019-03-24T07:14:26.667Z,1026.05
2019-03-24T07:15:26.689Z,1026.08
2019-03-24T07:16:26.681Z,1026.1
2019-03-24T07:17:26.675Z,1026.11
2019-03-24T07:18:26.719Z,1026.11
2019-03-24T07:19:26.685Z,1026.14
2019-03-24T07:20:26.683Z,1026.15
2019-03-24T07:21:26.752Z,1026.11
2019-03-24T07:22:26.660Z,1026.09
2019-03-24T07:23:26.669Z,1026.1
2019-03-24T07:24:26.669Z,1026.14
2019-03-24T07:25:26.701Z,1026.11
2019-03-24T07:26:26.696Z,1026.12
2019-03-24T07:27:26.742Z,1026.13
2019-03-24T07:28:26.683Z,1026.15
2019-03-24T07:29:26.662Z,1026.13
2019-03-24T07:30:26.660Z,1026.15
2019-03-24T07:31:26.717Z,1026.17
2019-03-24T07:32:26.700Z,1026.13
2019-03-24T07:33:26.654Z,1026.13
2019-03-24T07:34:26.653Z,1026.11
2019-03-24T07:35:26.641Z,1026.09
2019-03-24T07:36:26.793Z,1026.08
2019-03-24T07:37:26.635Z,1026.08
2019-03-24T07:38:26.707Z,1026.11
2019-03-24T07:39:26.650Z,1026.09
2019-03-24T07:40:28.501Z,1026.13
2019-03-24T07:41:26.706Z,1026.11
2019-03-24T07:42:26.645Z,1026.13
2019-03-24T07:43:26.636Z,1026.15
2019-03-24T07:44:26.658Z,1026.11
2019-03-24T07:45:26.631Z,1026.11
2019-03-24T07:46:26.636Z,1026.12
2019-03-24T07:47:26.651Z,1026.14
2019-03-24T07:48:26.722Z,1026.1
2019-03-24T07:49:26.641Z,1026.09
2019-03-24T07:50:26.655Z,1026.11
2019-03-24T07:51:26.626Z,1026.11
2019-03-24T07:52:26.627Z,1026.07
2019-03-24T07:53:26.645Z,1026.09
2019-03-24T07:54:26.666Z,1026.06
2019-03-24T07:55:26.631Z,1026.05
2019-03-24T07:56:26.624Z,1025.99
2019-03-24T07:57:26.628Z,1025.98
2019-03-24T07:58:26.606Z,1026
2019-03-24T07:59:26.609Z,1026
2019-03-24T08:00:26.656Z,1026
2019-03-24T08:01:26.639Z,1026.01
2019-03-24T08:02:26.654Z,1025.96
2019-03-24T08:03:26.653Z,1025.94
2019-03-24T08:04:26.629Z,1025.93
2019-03-24T08:05:26.634Z,1025.97
2019-03-24T08:06:26.637Z,1025.91
2019-03-24T08:07:26.638Z,1025.92
2019-03-24T08:08:26.677Z,1025.9
2019-03-24T08:09:26.583Z,1025.88
2019-03-24T08:10:26.681Z,1025.85
2019-03-24T08:11:26.596Z,1025.87
2019-03-24T08:12:26.578Z,1025.83
2019-03-24T08:13:26.629Z,1025.84
2019-03-24T08:14:26.624Z,1025.83
2019-03-24T08:15:26.674Z,1025.8
2019-03-24T08:16:26.622Z,1025.8
2019-03-24T08:17:26.595Z,1025.81
2019-03-24T08:18:30.449Z,1025.77
2019-03-24T08:19:26.606Z,1025.75
2019-03-24T08:20:26.613Z,1025.75
2019-03-24T08:21:26.642Z,1025.7
2019-03-24T08:22:26.583Z,1025.7
2019-03-24T08:23:26.737Z,1025.66
2019-03-24T08:24:26.604Z,1025.7
2019-03-24T08:25:26.567Z,1025.66
2019-03-24T08:26:26.585Z,1025.67
2019-03-24T08:27:26.567Z,1025.66
2019-03-24T08:28:26.837Z,1025.69
2019-03-24T08:29:26.577Z,1025.63
2019-03-24T08:30:28.939Z,1025.64
2019-03-24T08:31:26.565Z,1025.68
2019-03-24T08:32:26.577Z,1025.68
2019-03-24T08:33:26.670Z,1025.67
2019-03-24T08:34:26.626Z,1025.66
2019-03-24T08:35:26.622Z,1025.69
2019-03-24T08:36:26.568Z,1025.67
2019-03-24T08:37:26.593Z,1025.68
2019-03-24T08:38:29.433Z,1025.68
2019-03-24T08:39:26.586Z,1025.64
2019-03-24T08:40:26.710Z,1025.64
2019-03-24T08:41:26.553Z,1025.6
2019-03-24T08:42:26.562Z,1025.58
2019-03-24T08:43:26.573Z,1025.58
2019-03-24T08:44:26.568Z,1025.57
2019-03-24T08:45:26.647Z,1025.59
2019-03-24T08:46:26.553Z,1025.6
2019-03-24T08:47:26.623Z,1025.62
2019-03-24T08:48:26.527Z,1025.59
2019-03-24T08:49:26.546Z,1025.54
2019-03-24T08:50:26.541Z,1025.52
2019-03-24T08:51:26.537Z,1025.52
2019-03-24T08:52:26.591Z,1025.49
2019-03-24T08:53:26.599Z,1025.51
2019-03-24T08:54:26.587Z,1025.47
2019-03-24T08:55:26.585Z,1025.5
2019-03-24T08:56:26.559Z,1025.48
2019-03-24T08:57:26.569Z,1025.44
2019-03-24T08:58:26.565Z,1025.44
2019-03-24T08:59:27.521Z,1025.39
2019-03-24T09:00:31.216Z,1025.36
2019-03-24T09:01:26.513Z,1025.35
2019-03-24T09:02:26.531Z,1025.37
2019-03-24T09:03:26.549Z,1025.33
2019-03-24T09:04:26.540Z,1025.3
2019-03-24T09:05:26.531Z,1025.32
2019-03-24T09:06:26.515Z,1025.31
2019-03-24T09:07:26.687Z,1025.26
2019-03-24T09:08:26.522Z,1025.23
2019-03-24T09:09:26.521Z,1025.23
2019-03-24T09:10:26.557Z,1025.21
2019-03-24T09:11:31.694Z,1025.18
2019-03-24T09:12:31.406Z,1025.18
2019-03-24T09:13:26.512Z,1025.19
2019-03-24T09:14:26.514Z,1025.15
2019-03-24T09:15:26.567Z,1025.17
2019-03-24T09:16:26.580Z,1025.14
2019-03-24T09:17:26.601Z,1025.14
2019-03-24T09:18:26.558Z,1025.15
2019-03-24T09:19:26.507Z,1025.16
2019-03-24T09:20:26.514Z,1025.14
2019-03-24T09:21:26.559Z,1025.15
2019-03-24T09:22:26.521Z,1025.17
2019-03-24T09:23:26.547Z,1025.14
2019-03-24T09:24:26.517Z,1025.13
2019-03-24T09:25:26.713Z,1025.12
2019-03-24T09:26:26.515Z,1025.07
2019-03-24T09:27:26.588Z,1025.07
2019-03-24T09:28:26.544Z,1025.06
2019-03-24T09:29:26.772Z,1025.04
2019-03-24T09:30:26.576Z,1025.02
2019-03-24T09:31:26.508Z,1025.03
2019-03-24T09:32:26.557Z,1025
2019-03-24T09:33:26.495Z,1024.96
2019-03-24T09:34:26.518Z,1024.92
2019-03-24T09:35:26.488Z,1024.91
2019-03-24T09:36:26.647Z,1024.91
2019-03-24T09:37:26.555Z,1024.89
2019-03-24T09:38:26.534Z,1024.85
2019-03-24T09:39:26.521Z,1024.88
2019-03-24T09:40:26.479Z,1024.88
2019-03-24T09:41:26.547Z,1024.86
2019-03-24T09:42:26.511Z,1024.87
2019-03-24T09:43:26.483Z,1024.88
2019-03-24T09:44:26.522Z,1024.85
2019-03-24T09:45:26.533Z,1024.84
2019-03-24T09:46:26.540Z,1024.84
2019-03-24T09:47:26.483Z,1024.82
2019-03-24T09:48:26.545Z,1024.8
2019-03-24T09:49:26.473Z,1024.82
2019-03-24T09:50:26.667Z,1024.83
2019-03-24T09:51:26.570Z,1024.78
2019-03-24T09:52:26.468Z,1024.78
2019-03-24T09:53:26.476Z,1024.8
2019-03-24T09:54:26.476Z,1024.85
2019-03-24T09:55:26.436Z,1024.78
2019-03-24T09:56:27.478Z,1024.77
2019-03-24T09:57:26.450Z,1024.82
2019-03-24T09:58:26.449Z,1024.78
2019-03-24T09:59:26.481Z,1024.76
2019-03-24T10:00:26.472Z,1024.78
2019-03-24T10:01:26.572Z,1024.78
2019-03-24T10:02:26.481Z,1024.74
2019-03-24T10:03:26.441Z,1024.74
2019-03-24T10:04:27.397Z,1024.76
2019-03-24T10:05:26.435Z,1024.72
2019-03-24T10:06:26.437Z,1024.72
2019-03-24T10:07:26.506Z,1024.71
2019-03-24T10:08:26.450Z,1024.75
2019-03-24T10:09:26.459Z,1024.68
2019-03-24T10:10:26.548Z,1024.71
2019-03-24T10:11:26.539Z,1024.72
2019-03-24T10:12:26.474Z,1024.69
2019-03-24T10:13:26.504Z,1024.65
2019-03-24T10:14:26.463Z,1024.61
2019-03-24T10:15:26.419Z,1024.61
2019-03-24T10:16:26.487Z,1024.57
2019-03-24T10:17:26.561Z,1024.6
2019-03-24T10:18:27.619Z,1024.56
2019-03-24T10:19:26.548Z,1024.61
2019-03-24T10:20:26.463Z,1024.63
2019-03-24T10:21:26.409Z,1024.6
2019-03-24T10:22:26.396Z,1024.6
2019-03-24T10:23:26.444Z,1024.58
2019-03-24T10:24:26.388Z,1024.57
2019-03-24T10:25:26.484Z,1024.57
2019-03-24T10:26:27.022Z,1024.53
2019-03-24T10:27:26.425Z,1024.54
2019-03-24T10:28:26.396Z,1024.52
2019-03-24T10:29:26.435Z,1024.54
2019-03-24T10:30:26.470Z,1024.5
2019-03-24T10:31:26.410Z,1024.45
2019-03-24T10:32:26.430Z,1024.48
2019-03-24T10:33:26.406Z,1024.46
2019-03-24T10:34:26.472Z,1024.47
2019-03-24T10:35:26.494Z,1024.47
2019-03-24T10:36:27.532Z,1024.47
2019-03-24T10:37:26.392Z,1024.47
2019-03-24T10:38:26.413Z,1024.46
2019-03-24T10:39:26.419Z,1024.46
2019-03-24T10:40:29.197Z,1024.46
2019-03-24T10:41:26.461Z,1024.42
2019-03-24T10:42:26.482Z,1024.39
2019-03-24T10:43:26.385Z,1024.4
2019-03-24T10:44:26.482Z,1024.41
2019-03-24T10:45:26.385Z,1024.35
2019-03-24T10:46:26.386Z,1024.35
2019-03-24T10:47:26.387Z,1024.36
2019-03-24T10:48:34.061Z,1024.33
2019-03-24T10:49:26.408Z,1024.34
2019-03-24T10:50:26.435Z,1024.35
2019-03-24T10:51:26.437Z,1024.32
2019-03-24T10:52:26.386Z,1024.34
2019-03-24T10:53:26.442Z,1024.3
2019-03-24T10:54:26.634Z,1024.28
2019-03-24T10:55:26.382Z,1024.24
2019-03-24T10:56:26.402Z,1024.25
2019-03-24T10:57:26.364Z,1024.25
2019-03-24T10:58:26.593Z,1024.2
2019-03-24T10:59:26.350Z,1024.2
2019-03-24T11:00:26.413Z,1024.19
2019-03-24T11:01:26.396Z,1024.19
2019-03-24T11:02:26.389Z,1024.17
2019-03-24T11:03:26.383Z,1024.17
2019-03-24T11:04:26.479Z,1024.13
2019-03-24T11:05:26.359Z,1024.14
2019-03-24T11:06:26.466Z,1024.15
2019-03-24T11:07:26.367Z,1024.12
2019-03-24T11:08:26.417Z,1024.18
2019-03-24T11:09:26.403Z,1024.15
2019-03-24T11:10:26.525Z,1024.12
2019-03-24T11:11:26.461Z,1024.15
2019-03-24T11:12:26.466Z,1024.11
2019-03-24T11:13:26.508Z,1024.13
2019-03-24T11:14:26.341Z,1024.11
2019-03-24T11:15:27.378Z,1024.14
2019-03-24T11:16:26.346Z,1024.15
2019-03-24T11:17:26.336Z,1024.13
2019-03-24T11:18:26.339Z,1024.11
2019-03-24T11:19:36.072Z,1024.1
2019-03-24T11:20:26.323Z,1024.08
2019-03-24T11:21:26.693Z,1024.1
2019-03-24T11:22:26.338Z,1024.08
2019-03-24T11:23:26.373Z,1024.07
2019-03-24T11:24:26.325Z,1024.07
2019-03-24T11:25:26.355Z,1024.05
2019-03-24T11:26:26.385Z,1024.1
2019-03-24T11:27:26.324Z,1024.05
2019-03-24T11:28:26.335Z,1024.06
2019-03-24T11:29:26.323Z,1024.07
2019-03-24T11:30:26.415Z,1024.05
2019-03-24T11:31:26.359Z,1024.03
2019-03-24T11:32:26.294Z,1024
2019-03-24T11:33:26.329Z,1023.95
2019-03-24T11:34:26.399Z,1023.96
2019-03-24T11:35:27.205Z,1023.93
2019-03-24T11:36:26.350Z,1023.91
2019-03-24T11:37:27.038Z,1023.91
2019-03-24T11:38:26.356Z,1023.89
2019-03-24T11:39:27.576Z,1023.88
2019-03-24T11:40:26.422Z,1023.86
2019-03-24T11:41:26.435Z,1023.85
2019-03-24T11:42:26.333Z,1023.83
2019-03-24T11:43:26.379Z,1023.81
2019-03-24T11:44:26.345Z,1023.81
2019-03-24T11:45:26.330Z,1023.85
2019-03-24T11:46:26.317Z,1023.83
2019-03-24T11:47:27.250Z,1023.85
2019-03-24T11:48:26.352Z,1023.86
2019-03-24T11:49:26.338Z,1023.79
2019-03-24T11:50:26.366Z,1023.77
2019-03-24T11:51:26.306Z,1023.72
2019-03-24T11:52:26.339Z,1023.72
2019-03-24T11:53:26.313Z,1023.74
2019-03-24T11:54:26.313Z,1023.72
2019-03-24T11:55:26.342Z,1023.68
2019-03-24T11:56:26.286Z,1023.7
2019-03-24T11:57:26.441Z,1023.7
2019-03-24T11:58:26.475Z,1023.67
2019-03-24T11:59:26.302Z,1023.67
2019-03-24T12:00:27.384Z,1023.66
2019-03-24T12:01:26.312Z,1023.65
2019-03-24T12:02:26.352Z,1023.61
2019-03-24T12:03:26.294Z,1023.63
2019-03-24T12:04:26.312Z,1023.61
2019-03-24T12:05:26.321Z,1023.59
2019-03-24T12:06:26.332Z,1023.59
2019-03-24T12:07:26.273Z,1023.57
2019-03-24T12:08:26.290Z,1023.57
2019-03-24T12:09:26.302Z,1023.57